createdAt,value
2018-09-11T00:01:09.631Z,95573.92
2018-09-11T00:03:35.967Z,95575.41
2018-09-11T00:06:02.330Z,95575.78
2018-09-11T00:08:28.668Z,95578.66
2018-09-11T00:10:55.020Z,95576.41
2018-09-11T00:13:21.385Z,95582.22
2018-09-11T00:15:47.709Z,95579.73
2018-09-11T00:18:14.103Z,95578.98
2018-09-11T00:20:40.486Z,95580.86
2018-09-11T00:23:06.809Z,95579.07
2018-09-11T00:25:33.123Z,95577.12
2018-09-11T00:27:59.447Z,95570.68
2018-09-11T00:30:25.807Z,95569.59
2018-09-11T00:32:52.148Z,95567.48
2018-09-11T00:35:18.535Z,95570.47
2018-09-11T00:37:44.867Z,95567.94
2018-09-11T00:40:11.196Z,95573.09
2018-09-11T00:42:37.570Z,95555.94
2018-09-11T00:45:03.927Z,95567.78
2018-09-11T00:47:30.633Z,95566.16
2018-09-11T00:49:56.962Z,95567.94
2018-09-11T00:52:23.364Z,95568.94
2018-09-11T00:54:49.699Z,95567.19
2018-09-11T00:57:16.023Z,95561.72
2018-09-11T00:59:42.367Z,95563.13
2018-09-11T01:02:08.714Z,95558.94
2018-09-11T01:04:35.096Z,95563.76
2018-09-11T01:07:01.481Z,95562.02
2018-09-11T01:09:27.812Z,95566.77
2018-09-11T01:11:54.236Z,95565.29
2018-09-11T01:14:20.620Z,95557.92
2018-09-11T01:16:46.932Z,95565.42
2018-09-11T01:19:13.279Z,95563.75
2018-09-11T01:21:39.657Z,95561.08
2018-09-11T01:24:05.988Z,95567.70
2018-09-11T01:26:32.299Z,95566.24
2018-09-11T01:28:58.648Z,95568.80
2018-09-11T01:31:24.988Z,95574.58
2018-09-11T01:33:51.372Z,95568.01
2018-09-11T01:36:17.692Z,95570.00
2018-09-11T01:38:44.051Z,95563.02
2018-09-11T01:41:10.383Z,95565.49
2018-09-11T01:43:36.744Z,95559.59
2018-09-11T01:46:03.093Z,95554.58
2018-09-11T01:48:29.476Z,95553.90
2018-09-11T01:50:55.787Z,95557.94
2018-09-11T01:53:22.115Z,95561.98
2018-09-11T01:55:48.454Z,95563.66
2018-09-11T01:58:14.787Z,95553.45
2018-09-11T02:00:41.183Z,95567.13
2018-09-11T02:03:07.512Z,95563.16
2018-09-11T02:05:33.880Z,95558.73
2018-09-11T02:08:00.272Z,95558.69
2018-09-11T02:10:26.690Z,95563.28
2018-09-11T02:12:53.029Z,95557.42
2018-09-11T02:15:19.391Z,95562.54
2018-09-11T02:17:45.739Z,95561.75
2018-09-11T02:20:12.115Z,95571.49
2018-09-11T02:22:38.501Z,95570.91
2018-09-11T02:25:04.865Z,95573.13
2018-09-11T02:27:31.243Z,95575.39
2018-09-11T02:29:57.582Z,95576.06
2018-09-11T02:32:23.959Z,95583.41
2018-09-11T02:34:50.290Z,95579.11
2018-09-11T02:37:16.704Z,95579.82
2018-09-11T02:39:43.120Z,95578.34
2018-09-11T02:42:09.504Z,95589.27
2018-09-11T02:44:35.832Z,95583.38
2018-09-11T02:47:02.247Z,95586.43
2018-09-11T02:49:28.575Z,95588.70
2018-09-11T02:51:54.911Z,95586.95
2018-09-11T02:54:21.345Z,95589.34
2018-09-11T02:56:47.711Z,95582.88
2018-09-11T02:59:14.041Z,95584.44
2018-09-11T03:01:40.379Z,95580.09
2018-09-11T03:04:06.744Z,95589.31
2018-09-11T03:06:33.115Z,95588.86
2018-09-11T03:08:59.456Z,95584.81
2018-09-11T03:11:25.819Z,95583.56
2018-09-11T03:13:52.154Z,95584.13
2018-09-11T03:16:18.479Z,95587.53
2018-09-11T03:18:44.896Z,95588.92
2018-09-11T03:21:11.203Z,95591.08
2018-09-11T03:23:37.638Z,95590.09
2018-09-11T03:26:03.962Z,95591.38
2018-09-11T03:28:30.372Z,95593.68
2018-09-11T03:30:56.720Z,95587.23
2018-09-11T03:33:23.061Z,95588.11
2018-09-11T03:35:49.438Z,95590.31
2018-09-11T03:38:15.820Z,95587.34
2018-09-11T03:40:42.157Z,95589.00
2018-09-11T03:43:08.475Z,95588.77
2018-09-11T03:45:35.938Z,95592.48
2018-09-11T03:48:02.336Z,95599.55
2018-09-11T03:50:28.666Z,95601.31
2018-09-11T03:52:55.120Z,95598.91
2018-09-11T03:55:21.469Z,95597.44
2018-09-11T03:57:47.800Z,95597.81
2018-09-11T04:00:14.120Z,95600.95
2018-09-11T04:02:40.443Z,95593.02
2018-09-11T04:05:06.788Z,95600.98
2018-09-11T04:07:33.120Z,95598.59
2018-09-11T04:09:59.565Z,95594.63
2018-09-11T04:12:25.887Z,95599.86
2018-09-11T04:14:52.216Z,95607.41
2018-09-11T04:17:18.552Z,95610.51
2018-09-11T04:19:44.923Z,95617.42
2018-09-11T04:22:11.256Z,95622.72
2018-09-11T04:24:37.635Z,95627.93
2018-09-11T04:27:04.069Z,95635.45
2018-09-11T04:29:30.397Z,95635.75
2018-09-11T04:31:56.773Z,95639.02
2018-09-11T04:34:23.111Z,95638.87
2018-09-11T04:36:49.471Z,95644.08
2018-09-11T04:39:15.797Z,95652.56
2018-09-11T04:41:42.159Z,95648.72
2018-09-11T04:44:08.484Z,95644.83
2018-09-11T04:46:34.820Z,95651.58
2018-09-11T04:49:01.228Z,95655.08
2018-09-11T04:51:27.589Z,95649.82
2018-09-11T04:53:53.950Z,95651.55
2018-09-11T04:56:20.348Z,95652.87
2018-09-11T04:58:46.748Z,95653.06
2018-09-11T05:01:13.075Z,95652.52
2018-09-11T05:03:39.470Z,95656.16
2018-09-11T05:06:05.853Z,95656.27
2018-09-11T05:08:32.200Z,95660.31
2018-09-11T05:10:58.587Z,95665.64
2018-09-11T05:13:24.981Z,95663.11
2018-09-11T05:15:51.329Z,95659.41
2018-09-11T05:18:17.743Z,95657.95
2018-09-11T05:20:44.120Z,95655.14
2018-09-11T05:23:10.467Z,95654.65
2018-09-11T05:25:36.791Z,95654.41
2018-09-11T05:28:03.131Z,95656.36
2018-09-11T05:30:29.468Z,95658.40
2018-09-11T05:32:55.877Z,95656.48
2018-09-11T05:35:22.509Z,95657.41
2018-09-11T05:37:49.046Z,95658.53
2018-09-11T05:40:15.546Z,95657.83
2018-09-11T05:42:42.026Z,95657.99
2018-09-11T05:45:08.383Z,95658.91
2018-09-11T05:47:34.788Z,95661.66
2018-09-11T05:50:01.314Z,95654.30
2018-09-11T05:52:27.701Z,95665.98
2018-09-11T05:54:54.033Z,95662.12
2018-09-11T05:57:20.400Z,95660.83
2018-09-11T05:59:46.735Z,95653.77
2018-09-11T06:02:13.062Z,95657.75
2018-09-11T06:04:39.407Z,95657.70
2018-09-11T06:07:05.772Z,95660.94
2018-09-11T06:09:32.258Z,95656.66
2018-09-11T06:11:58.621Z,95649.36
2018-09-11T06:14:25.234Z,95651.52
2018-09-11T06:16:51.729Z,95649.52
2018-09-11T06:19:18.370Z,95650.05
2018-09-11T06:21:46.879Z,95655.41
2018-09-11T06:24:13.255Z,95645.83
2018-09-11T06:26:39.859Z,95648.84
2018-09-11T06:29:06.451Z,95652.80
2018-09-11T06:31:33.098Z,95646.61
2018-09-11T06:33:59.439Z,95649.95
2018-09-11T06:36:25.784Z,95647.98
2018-09-11T06:38:52.132Z,95648.72
2018-09-11T06:41:18.535Z,95649.07
2018-09-11T06:43:44.860Z,95651.98
2018-09-11T06:46:11.246Z,95652.07
2018-09-11T06:48:37.597Z,95658.63
2018-09-11T06:51:04.004Z,95662.28
2018-09-11T06:53:30.386Z,95666.30
2018-09-11T06:55:56.736Z,95658.95
2018-09-11T06:58:23.093Z,95669.52
2018-09-11T07:00:51.253Z,95671.39
2018-09-11T07:03:17.789Z,95670.92
2018-09-11T07:05:44.123Z,95668.61
2018-09-11T07:08:10.471Z,95672.30
2018-09-11T07:10:36.796Z,95679.66
2018-09-11T07:13:03.240Z,95671.79
2018-09-11T07:15:29.723Z,95673.59
2018-09-11T07:17:56.126Z,95676.45
2018-09-11T07:20:22.853Z,95676.59
2018-09-11T07:22:48.827Z,95675.00
2018-09-11T07:25:15.214Z,95670.91
2018-09-11T07:27:41.566Z,95673.25
2018-09-11T07:30:08.018Z,95665.24
2018-09-11T07:32:34.486Z,95665.19
2018-09-11T07:35:00.993Z,95660.52
2018-09-11T07:37:27.484Z,95652.36
2018-09-11T07:39:53.895Z,95650.96
2018-09-11T07:42:20.329Z,95654.14
2018-09-11T07:44:46.723Z,95649.48
2018-09-11T07:47:13.047Z,95657.61
2018-09-11T07:49:39.418Z,95662.08
2018-09-11T07:52:05.805Z,95655.25
2018-09-11T07:54:32.160Z,95657.09
2018-09-11T07:56:58.504Z,95664.61
2018-09-11T07:59:24.850Z,95663.05
2018-09-11T08:01:51.237Z,95660.91
2018-09-11T08:04:17.703Z,95663.91
2018-09-11T08:06:44.040Z,95664.91
2018-09-11T08:09:10.422Z,95668.62
2018-09-11T08:11:36.861Z,95664.78
2018-09-11T08:14:03.413Z,95664.02
2018-09-11T08:16:29.877Z,95659.03
2018-09-11T08:18:56.340Z,95664.42
2018-09-11T08:21:22.678Z,95668.30
2018-09-11T08:23:49.077Z,95667.56
2018-09-11T08:26:15.435Z,95670.63
2018-09-11T08:28:41.837Z,95669.59
2018-09-11T08:31:08.205Z,95675.70
2018-09-11T08:33:34.563Z,95672.29
2018-09-11T08:36:00.984Z,95677.22
2018-09-11T08:38:27.317Z,95676.16
2018-09-11T08:40:53.770Z,95674.45
2018-09-11T08:43:20.105Z,95677.88
2018-09-11T08:45:46.514Z,95675.47
2018-09-11T08:48:12.860Z,95685.11
2018-09-11T08:50:39.185Z,95673.27
2018-09-11T08:53:05.570Z,95674.13
2018-09-11T08:55:31.934Z,95674.50
2018-09-11T08:57:58.279Z,95669.98
2018-09-11T09:00:24.610Z,95671.45
2018-09-11T09:02:50.952Z,95681.52
2018-09-11T09:05:17.361Z,95673.91
2018-09-11T09:07:43.717Z,95666.02
2018-09-11T09:10:10.234Z,95670.72
2018-09-11T09:12:36.556Z,95662.42
2018-09-11T09:15:02.982Z,95654.44
2018-09-11T09:17:29.316Z,95657.16
2018-09-11T09:19:55.882Z,95655.22
2018-09-11T09:22:22.236Z,95649.69
2018-09-11T09:24:48.646Z,95649.81
2018-09-11T09:27:15.598Z,95645.86
2018-09-11T09:29:41.917Z,95649.32
2018-09-11T09:32:08.248Z,95643.36
2018-09-11T09:34:34.613Z,95641.52
2018-09-11T09:37:01.054Z,95642.58
2018-09-11T09:39:27.403Z,95638.19
2018-09-11T09:41:53.847Z,95638.19
2018-09-11T09:44:20.163Z,95639.11
2018-09-11T09:46:46.513Z,95632.61
2018-09-11T09:49:13.692Z,95637.00
2018-09-11T09:51:40.238Z,95632.29
2018-09-11T09:54:06.572Z,95631.83
2018-09-11T09:56:32.956Z,95630.35
2018-09-11T09:58:59.325Z,95626.98
2018-09-11T10:01:25.840Z,95617.48
2018-09-11T10:03:52.179Z,95617.05
2018-09-11T10:06:19.313Z,95620.56
2018-09-11T10:08:45.647Z,95615.06
2018-09-11T10:11:12.009Z,95610.23
2018-09-11T10:13:38.346Z,95609.02
2018-09-11T10:16:04.703Z,95615.62
2018-09-11T10:18:31.060Z,95616.74
2018-09-11T10:20:57.396Z,95614.67
2018-09-11T10:23:23.739Z,95616.97
2018-09-11T10:25:50.153Z,95612.58
2018-09-11T10:28:16.702Z,95615.58
2018-09-11T10:30:43.063Z,95612.89
2018-09-11T10:33:10.173Z,95609.53
2018-09-11T10:35:36.524Z,95611.75
2018-09-11T10:38:02.885Z,95611.01
2018-09-11T10:40:29.283Z,95609.90
2018-09-11T10:42:55.667Z,95615.30
2018-09-11T10:45:22.019Z,95608.89
2018-09-11T10:47:48.364Z,95608.58
2018-09-11T10:50:14.887Z,95606.90
2018-09-11T10:52:41.276Z,95605.78
2018-09-11T10:55:07.651Z,95598.32
2018-09-11T10:57:34.063Z,95600.14
2018-09-11T11:00:00.596Z,95594.57
2018-09-11T11:02:26.949Z,95598.34
2018-09-11T11:04:53.384Z,95598.48
2018-09-11T11:07:19.783Z,95600.61
2018-09-11T11:09:46.134Z,95600.28
2018-09-11T11:12:12.530Z,95597.80
2018-09-11T11:14:38.903Z,95596.33
2018-09-11T11:17:05.325Z,95595.04
2018-09-11T11:19:31.731Z,95593.33
2018-09-11T11:21:58.088Z,95593.02
2018-09-11T11:24:24.540Z,95596.66
2018-09-11T11:26:50.925Z,95593.20
2018-09-11T11:29:17.251Z,95592.96
2018-09-11T11:31:43.611Z,95595.14
2018-09-11T11:34:10.065Z,95588.73
2018-09-11T11:36:36.629Z,95592.42
2018-09-11T11:39:02.930Z,95591.31
2018-09-11T11:41:29.329Z,95592.42
2018-09-11T11:43:55.739Z,95594.95
2018-09-11T11:46:22.100Z,95594.10
2018-09-11T11:48:48.432Z,95593.80
2018-09-11T11:51:14.801Z,95584.47
2018-09-11T11:53:41.271Z,95579.87
2018-09-11T11:56:07.840Z,95573.83
2018-09-11T11:58:34.216Z,95565.43
2018-09-11T12:01:00.626Z,95570.84
2018-09-11T12:03:26.992Z,95569.59
2018-09-11T12:05:53.493Z,95568.35
2018-09-11T12:08:19.893Z,95561.15
2018-09-11T12:10:46.251Z,95565.36
2018-09-11T12:13:12.626Z,95564.36
2018-09-11T12:15:39.057Z,95563.80
2018-09-11T12:18:05.414Z,95560.80
2018-09-11T12:20:31.844Z,95562.39
2018-09-11T12:22:58.315Z,95559.14
2018-09-11T12:25:24.692Z,95550.61
2018-09-11T12:27:51.076Z,95548.46
2018-09-11T12:30:17.509Z,95552.38
2018-09-11T12:32:44.215Z,95539.83
2018-09-11T12:35:10.710Z,95542.81
2018-09-11T12:37:37.654Z,95541.52
2018-09-11T12:40:04.009Z,95539.02
2018-09-11T12:42:30.466Z,95541.16
2018-09-11T12:44:56.850Z,95536.70
2018-09-11T12:47:23.525Z,95529.64
2018-09-11T12:49:49.790Z,95533.61
2018-09-11T12:52:16.137Z,95522.44
2018-09-11T12:54:42.623Z,95538.53
2018-09-11T12:57:08.999Z,95540.22
2018-09-11T12:59:35.336Z,95537.53
2018-09-11T13:02:01.936Z,95533.48
2018-09-11T13:04:28.342Z,95529.66
2018-09-11T13:06:54.755Z,95527.11
2018-09-11T13:09:21.161Z,95529.36
2018-09-11T13:11:47.520Z,95532.23
2018-09-11T13:14:13.902Z,95536.70
2018-09-11T13:16:40.284Z,95537.66
2018-09-11T13:19:07.269Z,95529.88
2018-09-11T13:21:34.100Z,95530.01
2018-09-11T13:24:00.450Z,95528.95
2018-09-11T13:26:26.891Z,95525.59
2018-09-11T13:28:53.234Z,95529.95
2018-09-11T13:31:19.567Z,95527.45
2018-09-11T13:33:46.021Z,95528.50
2018-09-11T13:36:12.464Z,95534.30
2018-09-11T13:38:38.936Z,95533.95
2018-09-11T13:41:05.311Z,95538.22
2018-09-11T13:43:31.680Z,95533.36
2018-09-11T13:45:58.020Z,95532.29
2018-09-11T13:48:24.347Z,95526.55
2018-09-11T13:50:50.781Z,95532.99
2018-09-11T13:53:17.130Z,95528.83
2018-09-11T13:55:43.526Z,95525.77
2018-09-11T13:58:09.945Z,95523.20
2018-09-11T14:00:36.326Z,95524.56
2018-09-11T14:03:02.783Z,95523.13
2018-09-11T14:05:29.920Z,95522.33
2018-09-11T14:07:56.246Z,95525.00
2018-09-11T14:10:22.641Z,95518.31
2018-09-11T14:12:49.017Z,95517.27
2018-09-11T14:15:15.355Z,95512.11
2018-09-11T14:17:41.713Z,95511.80
2018-09-11T14:20:08.073Z,95513.81
2018-09-11T14:22:34.416Z,95511.98
2018-09-11T14:25:00.835Z,95511.03
2018-09-11T14:27:27.179Z,95503.58
2018-09-11T14:29:53.581Z,95505.23
2018-09-11T14:32:19.920Z,95507.45
2018-09-11T14:34:46.305Z,95503.01
2018-09-11T14:37:12.733Z,95508.50
2018-09-11T14:39:39.122Z,95510.03
2018-09-11T14:42:05.465Z,95511.16
2018-09-11T14:44:31.809Z,95517.52
2018-09-11T14:46:58.147Z,95523.01
2018-09-11T14:49:24.547Z,95529.13
2018-09-11T14:51:50.973Z,95527.91
2018-09-11T14:54:17.365Z,95525.30
2018-09-11T14:56:43.853Z,95526.31
2018-09-11T14:59:10.425Z,95519.04
2018-09-11T15:01:37.012Z,95523.32
2018-09-11T15:04:03.502Z,95527.62
2018-09-11T15:06:29.887Z,95525.79
2018-09-11T15:08:56.536Z,95532.84
2018-09-11T15:11:23.009Z,95485.51
2018-09-11T15:13:49.385Z,95528.94
2018-09-11T15:16:15.973Z,95532.95
2018-09-11T15:18:42.353Z,95531.23
2018-09-11T15:21:08.756Z,95534.13
2018-09-11T15:23:35.084Z,95528.60
2018-09-11T15:26:01.488Z,95536.17
2018-09-11T15:28:27.935Z,95539.16
2018-09-11T15:30:54.349Z,95545.88
2018-09-11T15:33:20.780Z,95546.27
2018-09-11T15:35:47.162Z,95539.34
2018-09-11T15:38:13.781Z,95542.05
2018-09-11T15:40:40.158Z,95546.10
2018-09-11T15:43:06.856Z,95540.23
2018-09-11T15:45:33.253Z,95545.79
2018-09-11T15:47:59.591Z,95542.92
2018-09-11T15:50:25.919Z,95538.17
2018-09-11T15:52:52.264Z,95544.67
2018-09-11T15:55:18.627Z,95545.97
2018-09-11T15:57:44.973Z,95546.47
2018-09-11T16:00:11.374Z,95544.58
2018-09-11T16:02:37.700Z,95543.98
2018-09-11T16:05:04.041Z,95542.15
2018-09-11T16:07:30.379Z,95548.38
2018-09-11T16:09:56.712Z,95545.79
2018-09-11T16:12:23.111Z,95546.91
2018-09-11T16:14:49.470Z,95550.08
2018-09-11T16:17:15.810Z,95540.70
2018-09-11T16:19:42.259Z,95537.14
2018-09-11T16:22:08.627Z,95545.90
2018-09-11T16:24:34.927Z,95552.20
2018-09-11T16:27:01.261Z,95553.80
2018-09-11T16:29:27.644Z,95546.33
2018-09-11T16:31:53.980Z,95542.69
2018-09-11T16:34:20.300Z,95551.78
2018-09-11T16:36:46.650Z,95552.78
2018-09-11T16:39:12.981Z,95546.84
2018-09-11T16:41:39.341Z,95549.51
2018-09-11T16:44:05.692Z,95554.64
2018-09-11T16:46:32.397Z,95562.63
2018-09-11T16:48:58.783Z,95564.92
2018-09-11T16:51:25.147Z,95572.25
2018-09-11T16:53:51.534Z,95572.38
2018-09-11T16:56:17.948Z,95568.55
2018-09-11T16:58:44.290Z,95571.13
2018-09-11T17:01:10.662Z,95577.92
2018-09-11T17:03:37.022Z,95578.28
2018-09-11T17:06:03.408Z,95579.03
2018-09-11T17:08:29.847Z,95580.69
2018-09-11T17:10:56.179Z,95583.50
2018-09-11T17:13:22.571Z,95581.28
2018-09-11T17:15:48.894Z,95583.31
2018-09-11T17:18:15.246Z,95579.95
2018-09-11T17:20:41.678Z,95577.41
2018-09-11T17:23:08.026Z,95579.35
2018-09-11T17:25:34.411Z,95580.74
2018-09-11T17:28:00.735Z,95592.27
2018-09-11T17:30:27.108Z,95595.67
2018-09-11T17:32:53.481Z,95594.38
2018-09-11T17:35:19.821Z,95608.13
2018-09-11T17:37:46.199Z,95597.80
2018-09-11T17:40:12.537Z,95596.97
2018-09-11T17:42:38.986Z,95602.87
2018-09-11T17:45:05.348Z,95612.33
2018-09-11T17:47:31.709Z,95619.98
2018-09-11T17:49:58.083Z,95624.31
2018-09-11T17:52:24.425Z,95632.38
2018-09-11T17:54:50.786Z,95632.92
2018-09-11T17:57:17.121Z,95637.95
2018-09-11T17:59:43.476Z,95634.72
2018-09-11T18:02:09.858Z,95636.05
2018-09-11T18:04:36.239Z,95641.22
2018-09-11T18:07:02.596Z,95644.59
2018-09-11T18:09:28.996Z,95651.56
2018-09-11T18:11:55.399Z,95649.23
2018-09-11T18:14:21.783Z,95655.16
2018-09-11T18:16:48.139Z,95659.61
2018-09-11T18:19:14.523Z,95660.36
2018-09-11T18:21:40.887Z,95662.73
2018-09-11T18:24:07.212Z,95655.03
2018-09-11T18:26:33.638Z,95662.69
2018-09-11T18:28:59.971Z,95660.41
2018-09-11T18:31:26.360Z,95661.42
2018-09-11T18:33:52.738Z,95662.14
2018-09-11T18:36:19.085Z,95669.28
2018-09-11T18:38:45.480Z,95676.09
2018-09-11T18:41:11.824Z,95670.52
2018-09-11T18:43:38.146Z,95672.95
2018-09-11T18:46:04.473Z,95672.42
2018-09-11T18:48:30.818Z,95678.59
2018-09-11T18:50:57.161Z,95679.98
2018-09-11T18:53:23.500Z,95684.61
2018-09-11T18:55:49.869Z,95681.72
2018-09-11T18:58:16.230Z,95681.72
2018-09-11T19:00:42.581Z,95683.05
2018-09-11T19:03:08.921Z,95687.00
2018-09-11T19:05:35.350Z,95684.73
2018-09-11T19:08:01.684Z,95678.72
2018-09-11T19:10:28.012Z,95677.28
2018-09-11T19:12:54.476Z,95682.70
2018-09-11T19:15:20.749Z,95685.28
2018-09-11T19:17:47.100Z,95685.74
2018-09-11T19:20:13.465Z,95688.03
2018-09-11T19:22:39.816Z,95689.63
2018-09-11T19:25:06.146Z,95685.98
2018-09-11T19:27:32.468Z,95682.94
2018-09-11T19:29:58.840Z,95680.88
2018-09-11T19:32:25.174Z,95679.87
2018-09-11T19:34:51.520Z,95680.07
2018-09-11T19:37:17.836Z,95687.42
2018-09-11T19:39:44.153Z,95685.94
2018-09-11T19:42:10.539Z,95679.36
2018-09-11T19:44:36.854Z,95682.73
2018-09-11T19:47:03.268Z,95678.79
2018-09-11T19:49:29.652Z,95684.28
2018-09-11T19:51:56.025Z,95679.69
2018-09-11T19:54:22.388Z,95681.88
2018-09-11T19:56:48.848Z,95678.97
2018-09-11T19:59:15.180Z,95682.55
2018-09-11T20:01:41.540Z,95685.59
2018-09-11T20:04:07.944Z,95686.77
2018-09-11T20:06:34.280Z,95688.13
2018-09-11T20:09:00.595Z,95683.48
2018-09-11T20:11:26.935Z,95688.93
2018-09-11T20:13:53.261Z,95688.31
2018-09-11T20:16:19.643Z,95682.41
2018-09-11T20:18:46.008Z,95692.05
2018-09-11T20:21:12.330Z,95693.39
2018-09-11T20:23:38.655Z,95696.88
2018-09-11T20:26:04.989Z,95691.02
2018-09-11T20:28:31.379Z,95695.39
2018-09-11T20:30:57.714Z,95692.39
2018-09-11T20:33:24.043Z,95686.91
2018-09-11T20:35:50.373Z,95686.37
2018-09-11T20:38:16.703Z,95689.31
2018-09-11T20:40:43.038Z,95688.09
2018-09-11T20:43:09.431Z,95689.31
2018-09-11T20:45:35.775Z,95693.82
2018-09-11T20:48:02.239Z,95698.98
2018-09-11T20:50:28.565Z,95699.39
2018-09-11T20:52:54.884Z,95695.90
2018-09-11T20:55:21.221Z,95700.14
2018-09-11T20:57:47.555Z,95694.66
2018-09-11T21:00:13.923Z,95690.33
2018-09-11T21:02:40.256Z,95697.53
2018-09-11T21:05:06.648Z,95695.69
2018-09-11T21:07:33.021Z,95702.72
2018-09-11T21:09:59.359Z,95699.02
2018-09-11T21:12:25.747Z,95703.30
2018-09-11T21:14:52.076Z,95699.56
2018-09-11T21:17:18.578Z,95704.71
2018-09-11T21:19:44.927Z,95707.75
2018-09-11T21:22:11.250Z,95698.94
2018-09-11T21:24:37.575Z,95697.57
2018-09-11T21:27:03.939Z,95701.72
2018-09-11T21:29:30.268Z,95704.38
2018-09-11T21:31:56.625Z,95703.39
2018-09-11T21:34:23.031Z,95698.93
2018-09-11T21:36:50.187Z,95701.59
2018-09-11T21:39:16.516Z,95710.61
2018-09-11T21:41:42.861Z,95714.59
2018-09-11T21:44:09.188Z,95718.55
2018-09-11T21:46:35.543Z,95717.30
2018-09-11T21:49:01.876Z,95719.05
2018-09-11T21:51:28.243Z,95720.08
2018-09-11T21:53:54.584Z,95720.49
2018-09-11T21:56:20.969Z,95716.33
2018-09-11T21:58:47.295Z,95717.25
2018-09-11T22:01:13.631Z,95710.02
2018-09-11T22:03:39.959Z,95720.33
2018-09-11T22:06:06.348Z,95722.91
2018-09-11T22:08:32.720Z,95721.81
2018-09-11T22:10:59.047Z,95727.96
2018-09-11T22:13:25.445Z,95717.28
2018-09-11T22:15:51.788Z,95722.55
2018-09-11T22:18:18.116Z,95726.42
2018-09-11T22:20:44.448Z,95723.51
2018-09-11T22:23:10.780Z,95726.70
2018-09-11T22:25:37.145Z,95727.16
2018-09-11T22:28:03.502Z,95732.77
2018-09-11T22:30:29.904Z,95727.12
2018-09-11T22:32:56.241Z,95729.70
2018-09-11T22:35:22.600Z,95724.07
2018-09-11T22:37:49.255Z,95715.34
2018-09-11T22:40:15.605Z,95727.52
2018-09-11T22:42:41.989Z,95731.92
2018-09-11T22:45:08.312Z,95731.05
2018-09-11T22:47:34.640Z,95729.55
2018-09-11T22:50:00.954Z,95725.60
2018-09-11T22:52:27.282Z,95725.19
2018-09-11T22:54:53.612Z,95724.89
2018-09-11T22:57:19.982Z,95720.66
2018-09-11T22:59:46.335Z,95722.44
2018-09-11T23:02:12.748Z,95723.42
2018-09-11T23:04:39.094Z,95722.02
2018-09-11T23:07:05.408Z,95720.06
2018-09-11T23:09:31.768Z,95723.09
2018-09-11T23:11:58.091Z,95723.97
2018-09-11T23:14:24.475Z,95725.74
2018-09-11T23:16:50.820Z,95734.13
2018-09-11T23:19:17.140Z,95728.60
2018-09-11T23:21:43.469Z,95735.75
2018-09-11T23:24:09.848Z,95725.20
2018-09-11T23:26:36.224Z,95723.87
2018-09-11T23:29:02.595Z,95725.20
2018-09-11T23:31:28.920Z,95717.22
2018-09-11T23:33:55.322Z,95726.23
2018-09-11T23:36:21.684Z,95719.38
2018-09-11T23:38:48.057Z,95720.37
2018-09-11T23:41:14.420Z,95722.57
2018-09-11T23:43:40.868Z,95719.70
2018-09-11T23:46:07.295Z,95721.86
2018-09-11T23:48:33.622Z,95716.33
2018-09-11T23:50:59.953Z,95715.05
2018-09-11T23:53:26.320Z,95713.05
2018-09-11T23:55:52.680Z,95712.87
2018-09-11T23:58:19.064Z,95709.72
